Harp Township, Illinois
Current Conditions -  °F | °C
As of 12:35 AM on Saturday 20 Dec 2014 (Local Time) from KAAA Reporting Station
Haze Haze  
Wind Chill:   Ceiling: 5000
Heat Index:   Visibility: 5mi
Dew Point: -2°   Wind: 0mph
Humidity: 88%   Direction: NA
Pressure: 30.28"   Gusts: NA
Location:  40.143°N, 88.9637°W
Report Text: KAAA 200635Z AUTO 00000KT 5SM BR OVC050 00/M02 A3028 RMK AO2 T10051022
Loading
Personal Weather Stations






























Interactive Weather Map New forecast layout! Learn more

10-Day Weather Forecast

Advertisements
Track Severe Weather on mobile